Time;durP1;ratioP1;P1;durP2;ratioP2;P2;SDS_P1;SDS_P2;PMS_P1;PMS_P2;Temp;Humidity;BMP_temperature;BMP_pressure;BME280_temperature;BME280_humidity;BME280_pressure;Samples;Min_cycle;Max_cycle;Signal;HPM_P1;HPM_P2
2021/12/28 00:02:12;;;;;;;3.13;0.88;;;8.40;99.90;;;;;;5042661;28;20037;-79
2021/12/28 00:04:38;;;;;;;6.45;1.40;;;8.40;99.90;;;;;;5054286;28;20037;-77
2021/12/28 00:07:04;;;;;;;6.25;1.40;;;8.40;99.90;;;;;;5055840;28;20064;-78
2021/12/28 00:09:29;;;;;;;7.50;1.38;;;8.40;99.90;;;;;;5050583;28;20092;-79
2021/12/28 00:11:55;;;;;;;8.45;1.23;;;8.30;99.90;;;;;;5041489;28;20033;-79
2021/12/28 00:14:23;;;;;;;8.40;1.50;;;8.50;99.90;;;;;;5041843;28;20033;-79
2021/12/28 00:19:33;;;;;;;7.25;1.20;;;8.50;99.90;;;;;;5042754;28;20040;-79
2021/12/28 00:21:59;;;;;;;6.38;2.05;;;8.50;99.90;;;;;;5024238;28;20025;-78
2021/12/28 00:24:25;;;;;;;5.05;1.30;;;8.40;99.90;;;;;;5042560;28;20263;-77
2021/12/28 00:26:52;;;;;;;6.20;1.13;;;8.50;99.90;;;;;;5041544;28;20096;-78
2021/12/28 00:29:18;;;;;;;5.65;1.27;;;8.50;99.90;;;;;;5024643;28;20219;-80
2021/12/28 00:31:43;;;;;;;6.45;1.00;;;8.50;99.90;;;;;;5041111;28;20040;-79
2021/12/28 00:34:09;;;;;;;7.40;1.35;;;8.50;99.90;;;;;;5024556;28;20029;-80
2021/12/28 00:36:35;;;;;;;5.20;1.05;;;8.50;99.90;;;;;;5042649;28;20063;-79
2021/12/28 00:39:01;;;;;;;10.18;1.27;;;8.50;99.90;;;;;;5041609;28;20029;-79
2021/12/28 00:41:27;;;;;;;12.80;1.88;;;8.60;99.90;;;;;;5036846;28;20113;-79
2021/12/28 00:43:53;;;;;;;7.72;1.27;;;8.40;99.90;;;;;;5042241;28;20029;-78
2021/12/28 00:46:19;;;;;;;5.80;1.33;;;8.50;99.90;;;;;;5041571;28;20037;-78
2021/12/28 00:48:45;;;;;;;5.45;1.17;;;8.40;99.90;;;;;;5041998;28;20021;-78
2021/12/28 00:51:11;;;;;;;8.93;1.45;;;8.30;99.90;;;;;;5040549;28;20268;-78
2021/12/28 00:53:37;;;;;;;13.98;2.85;;;8.30;99.90;;;;;;5042421;28;20026;-78
2021/12/28 00:56:03;;;;;;;8.93;1.42;;;8.20;99.90;;;;;;5040644;28;20056;-78
2021/12/28 00:58:33;;;;;;;10.35;1.38;;;8.30;99.90;;;;;;5045219;28;20014;-79
2021/12/28 01:00:59;;;;;;;7.53;1.10;;;8.20;99.90;;;;;;5040796;28;20049;-79
2021/12/28 01:03:25;;;;;;;8.90;1.20;;;8.20;99.90;;;;;;5039061;28;20081;-78
2021/12/28 01:05:51;;;;;;;8.82;1.60;;;8.40;99.90;;;;;;5045945;28;20041;-80
2021/12/28 01:08:17;;;;;;;7.97;1.60;;;8.30;99.90;;;;;;5044168;28;20018;-79
2021/12/28 01:10:49;;;;;;;10.63;1.23;;;8.40;99.90;;;;;;5045616;28;20025;-78
2021/12/28 01:13:16;;;;;;;10.02;1.58;;;8.40;99.90;;;;;;5045494;28;20021;-77
2021/12/28 01:15:42;;;;;;;8.25;1.42;;;8.40;99.90;;;;;;5045088;28;20025;-78
2021/12/28 01:18:09;;;;;;;9.75;2.15;;;8.50;99.90;;;;;;5045387;28;20319;-78
2021/12/28 01:20:35;;;;;;;13.32;1.70;;;8.40;99.90;;;;;;5045931;28;20056;-78
2021/12/28 01:23:01;;;;;;;9.77;1.45;;;8.30;99.90;;;;;;5040057;28;20068;-78
2021/12/28 01:25:28;;;;;;;10.40;1.63;;;8.20;99.90;;;;;;5025917;28;20360;-77
2021/12/28 01:27:54;;;;;;;8.02;1.73;;;8.10;99.90;;;;;;5025885;28;20089;-77
2021/12/28 01:30:22;;;;;;;7.88;1.30;;;8.00;99.90;;;;;;5024199;28;20092;-78
2021/12/28 01:32:49;;;;;;;8.50;1.25;;;7.90;99.90;;;;;;5025525;28;20399;-77
2021/12/28 01:35:17;;;;;;;5.97;1.05;;;7.90;99.90;;;;;;5025638;28;20029;-77
2021/12/28 01:37:44;;;;;;;5.55;1.02;;;7.80;99.90;;;;;;5025481;28;20320;-77
2021/12/28 01:40:14;;;;;;;11.15;1.13;;;7.70;99.90;;;;;;5023989;28;20041;-77
2021/12/28 01:43:02;;;;;;;7.53;1.30;;;7.70;99.90;;;;;;5025715;28;20034;-78
2021/12/28 01:45:52;;;;;;;11.13;1.33;;;7.70;99.90;;;;;;5025846;28;20182;-78
2021/12/28 01:48:18;;;;;;;5.25;1.20;;;7.60;99.90;;;;;;5023935;28;20037;-78
2021/12/28 01:50:45;;;;;;;6.13;1.60;;;7.40;99.90;;;;;;5024391;28;20041;-78
2021/12/28 01:53:11;;;;;;;7.57;1.70;;;7.40;99.90;;;;;;5024054;28;20054;-77
2021/12/28 01:55:39;;;;;;;4.53;0.90;;;7.30;99.90;;;;;;5025319;28;20037;-77
2021/12/28 01:58:05;;;;;;;6.68;1.50;;;7.10;99.90;;;;;;5023571;28;20048;-78
2021/12/28 02:00:31;;;;;;;7.03;1.77;;;7.10;99.90;;;;;;5025396;28;20045;-78
2021/12/28 02:02:57;;;;;;;6.18;1.50;;;6.90;99.90;;;;;;5025427;28;20025;-76
2021/12/28 02:05:23;;;;;;;6.05;1.50;;;6.80;99.90;;;;;;5035118;28;20033;-77
2021/12/28 02:07:49;;;;;;;7.07;1.17;;;6.80;99.90;;;;;;5044832;28;20021;-77
2021/12/28 02:10:15;;;;;;;4.82;1.33;;;6.80;99.90;;;;;;5042735;28;20067;-76
2021/12/28 02:12:41;;;;;;;7.10;1.30;;;6.80;99.90;;;;;;5044738;28;20358;-77
2021/12/28 02:15:12;;;;;;;4.85;1.02;;;6.80;99.90;;;;;;5044565;28;20303;-78
2021/12/28 02:17:39;;;;;;;7.32;1.27;;;6.90;99.90;;;;;;5045142;28;20030;-76
2021/12/28 02:20:12;;;;;;;9.40;2.05;;;7.10;99.90;;;;;;5044302;28;20101;-76
2021/12/28 02:22:39;;;;;;;6.22;1.33;;;7.10;99.90;;;;;;5044916;28;20056;-77
2021/12/28 02:25:06;;;;;;;8.98;1.42;;;7.20;99.90;;;;;;5038681;28;20097;-77
2021/12/28 02:27:31;;;;;;;12.35;2.25;;;7.30;99.90;;;;;;5044742;28;20029;-78
2021/12/28 02:29:57;;;;;;;8.75;1.40;;;7.40;99.90;;;;;;5043814;28;20040;-79
2021/12/28 02:32:26;;;;;;;6.18;1.38;;;7.50;99.90;;;;;;5044421;28;20132;-77
2021/12/28 02:34:52;;;;;;;10.88;2.20;;;7.50;99.90;;;;;;5044254;28;20052;-77
2021/12/28 02:37:18;;;;;;;9.27;1.30;;;7.50;99.90;;;;;;5044073;28;20037;-76
2021/12/28 02:39:45;;;;;;;8.38;1.17;;;7.60;99.90;;;;;;5043539;28;20029;-77
2021/12/28 02:42:11;;;;;;;8.10;1.63;;;7.60;99.90;;;;;;5042854;28;20108;-77
2021/12/28 02:44:37;;;;;;;9.73;1.35;;;7.60;99.90;;;;;;5044158;28;20033;-78
2021/12/28 02:47:03;;;;;;;8.82;1.45;;;7.70;99.90;;;;;;5025475;28;20041;-77
2021/12/28 02:49:29;;;;;;;9.20;1.52;;;7.60;99.90;;;;;;5024059;28;20034;-77
2021/12/28 02:51:54;;;;;;;6.90;1.23;;;7.60;99.90;;;;;;5023536;28;20092;-77
2021/12/28 02:54:20;;;;;;;6.45;1.55;;;7.70;99.90;;;;;;5023857;28;20351;-78
2021/12/28 02:56:46;;;;;;;8.43;2.22;;;7.70;99.90;;;;;;5023189;28;20032;-78
2021/12/28 02:59:12;;;;;;;6.50;1.27;;;7.70;99.90;;;;;;5024176;28;20030;-77
2021/12/28 03:01:40;;;;;;;7.95;1.38;;;7.70;99.90;;;;;;5023222;28;20042;-78
2021/12/28 03:04:08;;;;;;;9.23;1.33;;;7.70;99.90;;;;;;5023693;28;20041;-78
2021/12/28 03:06:35;;;;;;;7.30;1.73;;;7.60;99.90;;;;;;5027582;28;20025;-78
2021/12/28 03:09:04;;;;;;;9.80;1.58;;;7.50;99.90;;;;;;5024042;28;20038;-79
2021/12/28 03:11:31;;;;;;;8.88;1.48;;;7.50;99.90;;;;;;5022713;28;20053;-79
2021/12/28 03:13:59;;;;;;;5.38;1.27;;;7.40;99.90;;;;;;5022827;28;20320;-79
2021/12/28 03:16:28;;;;;;;8.35;1.63;;;7.40;99.90;;;;;;5022561;28;20053;-77
2021/12/28 03:18:54;;;;;;;7.05;1.40;;;7.50;99.90;;;;;;5026487;28;20013;-75
2021/12/28 03:21:22;;;;;;;7.78;1.58;;;7.50;99.90;;;;;;5036559;28;20028;-77
2021/12/28 03:23:50;;;;;;;7.03;1.33;;;7.60;99.90;;;;;;5037391;28;20056;-77
2021/12/28 03:26:16;;;;;;;5.60;1.00;;;7.50;99.90;;;;;;5026645;28;20037;-77
2021/12/28 03:28:43;;;;;;;8.98;2.05;;;7.60;99.90;;;;;;5039816;28;20532;-77
2021/12/28 03:31:12;;;;;;;8.73;2.25;;;7.60;99.90;;;;;;5042642;28;20092;-77
2021/12/28 03:33:38;;;;;;;;;;;7.50;99.90;;;;;;5043828;28;20051;-78
2021/12/28 03:36:06;;;;;;;8.70;1.40;;;7.50;99.90;;;;;;5043629;28;19905;-76
2021/12/28 03:38:33;;;;;;;7.72;1.52;;;7.50;99.90;;;;;;5042683;28;20231;-77
2021/12/28 03:41:00;;;;;;;11.18;2.05;;;7.50;99.90;;;;;;5043251;28;20041;-78
2021/12/28 03:43:26;;;;;;;6.75;1.50;;;7.50;99.90;;;;;;5041965;28;20113;-79
2021/12/28 03:45:52;;;;;;;8.55;1.48;;;7.60;99.90;;;;;;5043382;28;20029;-77
2021/12/28 03:48:18;;;;;;;8.93;1.65;;;7.50;99.90;;;;;;5037257;28;20029;-77
2021/12/28 03:50:44;;;;;;;6.85;1.52;;;7.50;99.90;;;;;;5025737;28;20017;-76
2021/12/28 03:53:11;;;;;;;7.53;1.55;;;7.50;99.90;;;;;;5042821;28;20060;-76
2021/12/28 03:55:37;;;;;;;10.38;2.10;;;7.50;99.90;;;;;;5041863;28;20059;-78
2021/12/28 03:58:04;;;;;;;5.55;1.20;;;7.60;99.90;;;;;;5042888;28;20110;-78
2021/12/28 04:00:37;;;;;;;8.02;1.45;;;7.60;99.90;;;;;;5042438;28;20071;-78
2021/12/28 04:03:03;;;;;;;6.68;1.25;;;7.60;99.90;;;;;;5041835;28;20025;-79
2021/12/28 04:05:29;;;;;;;11.65;1.85;;;7.60;99.90;;;;;;5041130;28;20255;-79
2021/12/28 04:07:55;;;;;;;8.95;1.77;;;7.60;99.90;;;;;;5042682;28;20255;-77
2021/12/28 04:10:29;;;;;;;10.98;2.00;;;7.70;99.90;;;;;;5024957;28;20021;-76
2021/12/28 04:12:55;;;;;;;8.10;1.50;;;7.80;99.90;;;;;;5021936;28;20049;-77
2021/12/28 04:15:21;;;;;;;7.32;1.35;;;7.70;99.90;;;;;;5021456;28;20038;-76
2021/12/28 04:17:47;;;;;;;8.65;1.98;;;7.80;99.90;;;;;;5021783;28;20299;-77
2021/12/28 04:20:17;;;;;;;9.95;2.35;;;7.80;99.90;;;;;;5022603;28;20036;-76
2021/12/28 04:22:43;;;;;;;6.35;1.27;;;7.80;99.90;;;;;;5022444;28;20041;-77
2021/12/28 04:25:11;;;;;;;8.80;1.73;;;7.80;99.90;;;;;;5023078;28;20030;-77
2021/12/28 04:27:37;;;;;;;8.57;1.30;;;7.80;99.90;;;;;;5022795;28;20144;-77
2021/12/28 04:30:06;;;;;;;5.05;1.45;;;7.90;99.90;;;;;;5025771;28;20025;-78
2021/12/28 04:32:32;;;;;;;6.03;1.50;;;7.90;99.90;;;;;;5020845;28;20025;-77
2021/12/28 04:34:58;;;;;;;5.57;1.50;;;7.90;99.90;;;;;;5021670;28;20071;-77
2021/12/28 04:37:24;;;;;;;6.97;1.67;;;7.90;99.90;;;;;;5022276;28;20100;-76
2021/12/28 04:39:50;;;;;;;9.90;1.70;;;7.90;99.90;;;;;;5022867;28;20022;-80
2021/12/28 04:42:16;;;;;;;6.57;1.25;;;7.90;99.90;;;;;;5021342;28;20033;-77
2021/12/28 04:44:42;;;;;;;5.40;1.10;;;7.80;99.90;;;;;;5022739;28;20037;-78
2021/12/28 04:47:08;;;;;;;9.82;1.73;;;7.80;99.90;;;;;;5022738;28;20102;-77
2021/12/28 04:49:34;;;;;;;7.45;1.67;;;7.80;99.90;;;;;;5020879;28;20029;-77
2021/12/28 04:52:02;;;;;;;6.88;1.40;;;7.80;99.90;;;;;;5024893;28;20060;-77
2021/12/28 04:54:27;;;;;;;5.47;1.20;;;7.80;99.90;;;;;;5020942;28;20216;-77
2021/12/28 04:56:53;;;;;;;5.55;1.42;;;7.70;99.90;;;;;;5021477;28;20018;-76
2021/12/28 04:59:19;;;;;;;7.75;1.50;;;7.80;99.90;;;;;;5022185;28;20034;-78
2021/12/28 05:01:45;;;;;;;5.15;1.10;;;7.70;99.90;;;;;;5021433;28;20080;-77
2021/12/28 05:04:11;;;;;;;5.55;1.25;;;7.80;99.90;;;;;;5022546;28;20046;-77
2021/12/28 05:06:37;;;;;;;7.35;1.13;;;7.70;99.90;;;;;;5021653;28;20038;-77
2021/12/28 05:09:09;;;;;;;6.47;1.10;;;7.70;99.90;;;;;;5022412;28;20021;-77
2021/12/28 05:11:36;;;;;;;4.57;1.00;;;7.70;99.90;;;;;;5027731;28;20419;-78
2021/12/28 05:14:04;;;;;;;5.30;1.10;;;7.60;99.90;;;;;;5042245;28;20026;-77
2021/12/28 05:16:33;;;;;;;5.97;1.25;;;7.60;99.90;;;;;;5041519;28;20380;-77
2021/12/28 05:18:59;;;;;;;7.10;1.10;;;7.60;99.90;;;;;;5041373;28;20029;-77
2021/12/28 05:21:25;;;;;;;6.50;1.13;;;7.60;99.90;;;;;;5040818;28;20030;-76
2021/12/28 05:23:51;;;;;;;5.53;1.35;;;7.70;99.90;;;;;;5042127;28;20045;-79
2021/12/28 05:26:17;;;;;;;6.88;1.25;;;7.70;99.90;;;;;;5041580;28;20037;-77
2021/12/28 05:28:42;;;;;;;5.18;1.42;;;7.70;99.90;;;;;;5042077;28;20205;-77
2021/12/28 05:31:08;;;;;;;5.70;1.20;;;7.70;99.90;;;;;;5041840;28;20029;-77
2021/12/28 05:33:34;;;;;;;6.22;1.20;;;7.70;99.90;;;;;;5037586;28;20041;-77
2021/12/28 05:36:00;;;;;;;5.22;1.27;;;7.70;99.90;;;;;;5042101;28;20041;-77
2021/12/28 05:38:26;;;;;;;5.68;1.17;;;7.70;99.90;;;;;;5040539;28;20040;-77
2021/12/28 05:40:52;;;;;;;2.80;0.90;;;7.70;99.90;;;;;;5041006;28;20319;-78
2021/12/28 05:43:18;;;;;;;7.78;1.10;;;7.70;99.90;;;;;;5040220;28;20040;-77
2021/12/28 05:45:44;;;;;;;3.78;1.00;;;7.70;99.90;;;;;;5045626;28;20220;-77
2021/12/28 05:48:10;;;;;;;5.70;1.33;;;7.70;99.90;;;;;;5044117;28;20223;-77
2021/12/28 05:50:36;;;;;;;3.92;1.02;;;7.80;99.90;;;;;;5043898;28;20041;-77
2021/12/28 05:53:02;;;;;;;6.05;1.52;;;7.80;99.90;;;;;;5037822;28;20089;-78
2021/12/28 05:55:28;;;;;;;6.60;1.48;;;7.80;99.90;;;;;;5025256;28;20101;-78
2021/12/28 05:57:53;;;;;;;5.57;1.40;;;7.70;99.90;;;;;;5025354;28;20351;-78
2021/12/28 06:00:19;;;;;;;3.30;1.08;;;7.80;99.90;;;;;;5025122;28;20088;-78
2021/12/28 06:02:45;;;;;;;5.55;1.40;;;7.80;99.90;;;;;;5039042;28;20085;-78
2021/12/28 06:05:11;;;;;;;4.57;1.13;;;7.70;99.90;;;;;;5043740;28;20040;-77
2021/12/28 06:07:37;;;;;;;4.78;1.27;;;7.80;99.90;;;;;;5044888;28;20032;-78
2021/12/28 06:10:05;;;;;;;5.65;1.52;;;7.80;99.90;;;;;;5044610;28;20072;-78
2021/12/28 06:12:30;;;;;;;3.88;1.08;;;7.80;99.90;;;;;;5042598;28;20040;-78
2021/12/28 06:14:56;;;;;;;6.40;1.30;;;7.80;99.90;;;;;;5036545;28;20037;-78
2021/12/28 06:17:22;;;;;;;6.72;1.60;;;7.80;99.90;;;;;;5023945;28;20038;-77
2021/12/28 06:19:48;;;;;;;4.45;1.15;;;7.80;99.90;;;;;;5041244;28;20017;-78
2021/12/28 06:22:14;;;;;;;4.70;1.30;;;7.80;99.90;;;;;;5043702;28;20104;-78
2021/12/28 06:24:40;;;;;;;5.05;1.30;;;7.80;99.90;;;;;;5044192;28;20049;-77
2021/12/28 06:27:06;;;;;;;4.90;1.70;;;7.80;99.90;;;;;;5044543;28;20032;-78
2021/12/28 06:29:32;;;;;;;3.90;1.20;;;7.80;99.90;;;;;;5042758;28;20072;-78
2021/12/28 06:32:17;;;;;;;7.05;1.60;;;7.80;99.90;;;;;;5044426;28;20060;-77
2021/12/28 06:35:02;;;;;;;7.28;1.55;;;7.80;99.90;;;;;;5041482;28;20101;-76
2021/12/28 06:37:47;;;;;;;4.97;1.25;;;7.80;99.90;;;;;;5038827;28;20056;-75
2021/12/28 06:40:31;;;;;;;6.15;1.50;;;7.80;99.90;;;;;;5031549;28;20045;-78
2021/12/28 06:43:16;;;;;;;4.72;1.30;;;7.80;99.90;;;;;;5024363;28;20375;-79
2021/12/28 06:46:01;;;;;;;4.13;1.40;;;7.80;99.90;;;;;;5023960;28;20096;-78
2021/12/28 06:48:45;;;;;;;5.00;1.10;;;7.80;99.90;;;;;;5024453;28;20254;-78
2021/12/28 06:51:30;;;;;;;4.85;1.00;;;7.80;99.90;;;;;;5023973;28;20076;-78
2021/12/28 06:54:14;;;;;;;3.33;0.80;;;7.90;99.90;;;;;;5024676;28;20418;-77
2021/12/28 06:56:59;;;;;;;1.95;0.60;;;8.00;99.90;;;;;;5043830;28;20032;-76
2021/12/28 06:59:45;;;;;;;3.53;0.60;;;8.00;99.90;;;;;;5043639;28;20151;-78
2021/12/28 07:02:30;;;;;;;3.13;0.85;;;8.10;99.90;;;;;;5043544;28;20044;-77
2021/12/28 07:05:14;;;;;;;1.88;0.73;;;8.20;99.90;;;;;;5043721;28;20056;-78
2021/12/28 07:07:41;;;;;;;2.83;0.50;;;8.40;99.90;;;;;;5043278;28;20037;-77
2021/12/28 07:10:08;;;;;;;2.42;0.45;;;8.40;99.90;;;;;;5043421;28;20041;-77
2021/12/28 07:12:35;;;;;;;2.50;0.57;;;8.50;99.90;;;;;;5043348;28;20206;-77
2021/12/28 07:15:07;;;;;;;2.53;0.50;;;8.50;99.90;;;;;;5039730;28;20041;-77
2021/12/28 07:17:33;;;;;;;0.90;0.30;;;8.40;99.90;;;;;;5024572;28;20104;-78
2021/12/28 07:19:59;;;;;;;1.30;0.30;;;8.60;99.90;;;;;;5042429;28;20204;-77
2021/12/28 07:22:24;;;;;;;2.25;0.43;;;8.60;99.90;;;;;;5041789;28;20033;-79
2021/12/28 07:24:50;;;;;;;0.93;0.30;;;8.70;99.90;;;;;;5043467;28;20109;-79
2021/12/28 07:27:16;;;;;;;1.77;0.30;;;8.80;99.90;;;;;;5043652;28;20048;-78
2021/12/28 07:29:42;;;;;;;2.20;0.43;;;8.90;99.90;;;;;;5041943;28;20332;-78
2021/12/28 07:32:08;;;;;;;1.55;0.38;;;8.90;99.90;;;;;;5043277;28;20084;-77
2021/12/28 07:34:35;;;;;;;1.13;0.20;;;8.90;99.90;;;;;;5043035;28;20017;-79
2021/12/28 07:37:01;;;;;;;0.82;0.22;;;9.00;99.90;;;;;;5032892;28;20045;-79
2021/12/28 07:39:27;;;;;;;0.63;0.20;;;9.10;99.90;;;;;;5023276;28;20026;-79
2021/12/28 07:41:53;;;;;;;0.90;0.10;;;9.20;99.90;;;;;;5023629;28;20072;-78
2021/12/28 07:44:19;;;;;;;1.27;0.30;;;9.30;99.90;;;;;;5023657;28;20190;-79
2021/12/28 07:46:45;;;;;;;0.40;0.10;;;9.30;99.90;;;;;;5021216;28;20092;-79
2021/12/28 07:49:10;;;;;;;1.05;0.20;;;9.30;99.90;;;;;;5023265;28;20100;-79
2021/12/28 07:51:36;;;;;;;1.48;0.30;;;9.40;99.90;;;;;;5022666;28;20033;-77
2021/12/28 07:54:02;;;;;;;0.75;0.30;;;9.40;99.90;;;;;;5023457;28;20026;-78
2021/12/28 07:56:28;;;;;;;1.17;0.38;;;9.50;99.90;;;;;;5022673;28;20029;-78
2021/12/28 07:58:54;;;;;;;1.20;0.20;;;9.60;99.90;;;;;;5040164;28;20026;-78
2021/12/28 08:01:19;;;;;;;1.05;0.10;;;9.70;99.90;;;;;;5041301;28;20037;-79
2021/12/28 08:03:45;;;;;;;1.25;0.30;;;9.70;99.90;;;;;;5041454;28;20104;-79
2021/12/28 08:06:11;;;;;;;2.72;0.50;;;9.80;99.90;;;;;;5042896;28;20025;-79
2021/12/28 08:08:37;;;;;;;2.15;0.22;;;9.80;99.90;;;;;;5042664;28;20324;-78
2021/12/28 08:11:03;;;;;;;1.33;0.20;;;9.80;99.90;;;;;;5042675;28;20022;-78
2021/12/28 08:13:29;;;;;;;1.63;0.50;;;9.80;99.90;;;;;;5042337;28;20033;-78
2021/12/28 08:15:56;;;;;;;2.33;0.70;;;9.70;99.90;;;;;;5041432;28;20087;-78
2021/12/28 08:18:22;;;;;;;0.80;0.25;;;9.50;99.90;;;;;;5037491;28;20296;-78
2021/12/28 08:20:48;;;;;;;1.20;0.28;;;9.40;99.90;;;;;;5024333;28;20214;-78
2021/12/28 08:23:14;;;;;;;1.40;0.35;;;9.30;99.90;;;;;;5042356;28;20320;-78
2021/12/28 08:25:40;;;;;;;2.80;1.38;;;9.30;99.90;;;;;;5042002;28;20041;-78
2021/12/28 08:28:08;;;;;;;1.38;0.60;;;9.30;99.90;;;;;;5042741;28;20045;-78
2021/12/28 08:30:36;;;;;;;2.20;0.80;;;9.40;99.90;;;;;;5041587;28;20239;-78
2021/12/28 08:33:04;;;;;;;2.80;0.80;;;9.40;99.90;;;;;;5041476;28;20061;-78
2021/12/28 08:35:30;;;;;;;0.93;0.20;;;9.30;99.90;;;;;;5042118;28;20428;-79
2021/12/28 08:37:56;;;;;;;0.77;0.10;;;9.40;99.90;;;;;;5040279;28;20140;-78
2021/12/28 08:40:22;;;;;;;0.38;0.10;;;9.40;99.90;;;;;;5039294;28;20284;-79
2021/12/28 08:42:48;;;;;;;0.75;0.13;;;9.60;99.90;;;;;;5041891;28;20112;-79
2021/12/28 08:45:14;;;;;;;0.50;0.08;;;9.60;99.90;;;;;;5040449;28;20097;-78
2021/12/28 08:47:39;;;;;;;1.02;0.10;;;9.70;99.90;;;;;;5041762;28;20036;-79
2021/12/28 08:50:08;;;;;;;0.50;0.10;;;9.80;99.90;;;;;;5042614;28;20018;-78
2021/12/28 08:52:35;;;;;;;1.75;0.20;;;9.80;99.90;;;;;;5041991;28;20037;-79
2021/12/28 08:55:01;;;;;;;0.88;0.10;;;9.90;99.90;;;;;;5041047;28;20096;-79
2021/12/28 08:57:26;;;;;;;0.60;0.20;;;10.00;99.90;;;;;;5042227;28;20029;-80
2021/12/28 08:59:53;;;;;;;0.98;0.20;;;10.00;99.90;;;;;;5030250;28;20018;-79
2021/12/28 09:02:19;;;;;;;0.93;0.20;;;10.00;99.90;;;;;;5021842;28;20046;-78
2021/12/28 09:04:46;;;;;;;0.28;0.05;;;10.00;99.90;;;;;;5021038;28;20036;-78
2021/12/28 09:07:13;;;;;;;0.95;0.10;;;10.10;99.90;;;;;;5022268;28;20244;-78
2021/12/28 09:09:39;;;;;;;0.50;0.10;;;10.20;99.90;;;;;;5026881;28;20044;-78
2021/12/28 09:12:06;;;;;;;0.28;0.10;;;10.30;99.90;;;;;;5041942;28;20081;-78
2021/12/28 09:14:32;;;;;;;0.30;0.10;;;10.30;99.90;;;;;;5040325;28;20084;-78
2021/12/28 09:16:58;;;;;;;1.75;0.70;;;10.40;99.90;;;;;;5041522;28;20045;-79
2021/12/28 09:19:43;;;;;;;2.10;0.50;;;10.50;99.90;;;;;;5040966;28;20028;-78
2021/12/28 09:22:28;;;;;;;1.73;0.40;;;10.50;99.90;;;;;;5025928;28;20212;-79
2021/12/28 09:25:15;;;;;;;0.98;0.20;;;10.60;99.90;;;;;;5022960;28;20064;-79
2021/12/28 09:27:41;;;;;;;1.15;0.47;;;10.70;99.90;;;;;;5024653;28;20042;-78
2021/12/28 09:30:08;;;;;;;0.57;0.20;;;10.80;99.90;;;;;;5024437;28;20300;-79
2021/12/28 09:32:34;;;;;;;0.85;0.20;;;10.90;99.90;;;;;;5025429;28;20109;-78
2021/12/28 09:34:59;;;;;;;0.68;0.20;;;11.00;99.90;;;;;;5025680;28;20034;-78
2021/12/28 09:37:25;;;;;;;0.55;0.10;;;11.00;99.90;;;;;;5024856;28;20060;-78
2021/12/28 09:39:51;;;;;;;0.70;0.10;;;11.10;99.90;;;;;;5024605;28;20029;-77
2021/12/28 09:42:18;;;;;;;0.60;0.10;;;11.20;99.90;;;;;;5040935;28;20304;-78
2021/12/28 09:44:47;;;;;;;1.25;0.15;;;11.10;99.90;;;;;;5045072;28;20035;-78
2021/12/28 09:47:15;;;;;;;0.85;0.10;;;11.30;99.90;;;;;;5043972;28;20041;-79
2021/12/28 09:49:41;;;;;;;1.17;0.20;;;11.20;99.90;;;;;;5049586;28;20032;-79
2021/12/28 09:52:08;;;;;;;2.10;0.20;;;11.20;99.90;;;;;;5057124;28;20439;-78
2021/12/28 09:54:34;;;;;;;0.32;0.10;;;11.30;99.90;;;;;;5055220;28;20017;-78
2021/12/28 09:57:00;;;;;;;0.80;0.20;;;11.30;99.90;;;;;;5047103;28;20032;-78
2021/12/28 09:59:28;;;;;;;0.82;0.20;;;11.40;99.90;;;;;;5045371;28;20060;-77
2021/12/28 10:01:55;;;;;;;0.40;0.20;;;11.50;99.90;;;;;;5038799;28;20033;-77
2021/12/28 10:04:21;;;;;;;3.22;0.30;;;11.50;99.90;;;;;;5045105;28;20072;-78
2021/12/28 10:06:47;;;;;;;0.60;0.20;;;11.50;99.90;;;;;;5044868;28;20025;-76
2021/12/28 10:09:14;;;;;;;1.70;0.20;;;11.60;99.90;;;;;;5044863;28;20045;-78
2021/12/28 10:11:49;;;;;;;0.65;0.20;;;11.80;99.90;;;;;;5044621;28;20215;-78
2021/12/28 10:14:28;;;;;;;0.85;0.20;;;11.80;99.90;;;;;;5044285;28;20049;-79
2021/12/28 10:16:59;;;;;;;0.38;0.10;;;11.90;99.90;;;;;;5042860;28;20043;-78
2021/12/28 10:19:36;;;;;;;0.60;0.20;;;12.00;99.90;;;;;;5045115;28;20037;-79
2021/12/28 10:22:37;;;;;;;0.98;0.20;;;12.10;99.90;;;;;;5039039;28;20292;-80
2021/12/28 10:28:08;;;;;;;0.60;0.20;;;12.20;99.90;;;;;;5024555;28;20038;-79
2021/12/28 10:30:40;;;;;;;0.55;0.20;;;12.10;99.90;;;;;;5023488;28;20038;-79
2021/12/28 10:33:10;;;;;;;0.68;0.25;;;12.10;99.90;;;;;;5018162;28;20063;-79
2021/12/28 10:35:49;;;;;;;0.98;0.30;;;12.00;99.90;;;;;;5027124;28;20044;-77
2021/12/28 10:38:22;;;;;;;1.02;0.30;;;12.00;99.90;;;;;;5025426;28;20093;-77
2021/12/28 10:40:52;;;;;;;0.60;0.10;;;12.10;99.90;;;;;;5023007;28;20037;-78
2021/12/28 10:43:38;;;;;;;1.10;0.30;;;12.50;99.90;;;;;;5029291;28;20041;-78
2021/12/28 10:46:08;;;;;;;0.82;0.20;;;12.70;99.90;;;;;;5043684;28;20049;-78
2021/12/28 10:48:38;;;;;;;0.40;0.10;;;12.80;99.90;;;;;;5043016;28;20224;-77
2021/12/28 10:51:08;;;;;;;0.50;0.10;;;13.20;99.90;;;;;;5044160;28;20042;-77
2021/12/28 10:53:54;;;;;;;0.50;0.20;;;13.50;99.90;;;;;;5043731;28;20319;-77
2021/12/28 10:56:20;;;;;;;0.30;0.10;;;13.30;99.90;;;;;;5044178;28;20044;-78
2021/12/28 10:58:47;;;;;;;0.73;0.17;;;13.30;99.90;;;;;;5042732;28;20057;-78
2021/12/28 11:01:23;;;;;;;0.43;0.10;;;13.30;99.90;;;;;;5043703;28;20044;-78
2021/12/28 11:03:52;;;;;;;1.38;0.28;;;13.80;99.90;;;;;;5039772;28;20064;-77
2021/12/28 11:06:27;;;;;;;0.70;0.20;;;14.40;99.90;;;;;;5039461;28;20025;-78
2021/12/28 11:09:05;;;;;;;0.73;0.20;;;14.80;99.90;;;;;;5023618;28;20109;-77
2021/12/28 11:11:32;;;;;;;1.00;0.20;;;14.80;99.90;;;;;;5022894;28;20042;-78
2021/12/28 11:14:03;;;;;;;0.65;0.20;;;15.20;99.90;;;;;;5023914;28;20085;-77
2021/12/28 11:16:31;;;;;;;0.30;0.10;;;15.50;99.90;;;;;;5022238;28;20079;-77
2021/12/28 11:19:00;;;;;;;0.30;0.10;;;16.00;99.90;;;;;;5023379;28;20033;-77
2021/12/28 11:21:30;;;;;;;;;;;16.20;99.90;;;;;;5024202;28;20038;-78
2021/12/28 11:24:06;;;;;;;0.30;0.08;;;16.90;99.90;;;;;;5023214;28;20209;-78
2021/12/28 11:26:38;;;;;;;1.10;0.10;;;17.20;99.90;;;;;;5042695;28;20045;-80
2021/12/28 11:29:15;;;;;;;0.98;0.10;;;17.00;99.90;;;;;;5043781;28;20033;-78
2021/12/28 11:31:44;;;;;;;0.55;0.10;;;16.70;99.90;;;;;;5042681;28;20041;-77
2021/12/28 11:34:20;;;;;;;1.17;0.22;;;16.40;99.90;;;;;;5043180;28;20029;-79
2021/12/28 11:36:55;;;;;;;0.85;0.22;;;16.80;99.90;;;;;;5042583;28;20044;-78
2021/12/28 11:39:30;;;;;;;1.48;0.30;;;16.40;99.90;;;;;;5042673;28;20025;-78
2021/12/28 11:42:03;;;;;;;0.63;0.10;;;16.10;99.90;;;;;;5041611;28;20116;-78
2021/12/28 11:44:30;;;;;;;0.68;0.25;;;15.80;99.90;;;;;;5042082;28;20033;-77
2021/12/28 11:46:57;;;;;;;3.42;0.43;;;15.80;99.90;;;;;;5026059;28;20040;-76
2021/12/28 11:49:27;;;;;;;2.33;0.30;;;16.30;99.90;;;;;;5023392;28;20061;-77
2021/12/28 11:51:55;;;;;;;1.10;0.20;;;16.30;99.90;;;;;;5023338;28;20059;-80
2021/12/28 11:54:23;;;;;;;1.42;0.20;;;15.90;99.90;;;;;;5023376;28;20048;-78
2021/12/28 11:56:57;;;;;;;2.05;0.30;;;15.40;99.90;;;;;;5021867;28;20021;-78
2021/12/28 11:59:26;;;;;;;0.52;0.15;;;15.20;99.90;;;;;;5023386;28;20041;-77
2021/12/28 12:01:51;;;;;;;1.60;0.40;;;14.90;99.90;;;;;;5022294;28;20096;-76
2021/12/28 12:04:29;;;;;;;0.90;0.30;;;14.50;99.90;;;;;;5038071;28;20355;-80
2021/12/28 12:07:16;;;;;;;0.77;0.20;;;14.20;99.90;;;;;;5022290;28;20034;-77
2021/12/28 12:09:50;;;;;;;0.70;0.10;;;13.90;99.90;;;;;;5028110;28;20030;-77
2021/12/28 12:12:27;;;;;;;0.80;0.20;;;13.60;99.90;;;;;;5042342;28;20032;-77
2021/12/28 12:14:57;;;;;;;1.08;0.50;;;13.60;99.90;;;;;;5041193;28;20068;-77
2021/12/28 12:17:31;;;;;;;0.68;0.10;;;13.40;99.90;;;;;;5042092;28;20313;-78
2021/12/28 12:20:03;;;;;;;2.13;0.50;;;13.10;99.90;;;;;;5041855;28;20099;-76
2021/12/28 12:22:31;;;;;;;1.55;0.30;;;13.10;99.90;;;;;;5042617;28;20021;-77
2021/12/28 12:25:13;;;;;;;0.98;0.32;;;13.00;99.90;;;;;;5040872;28;20045;-78
2021/12/28 12:27:47;;;;;;;1.50;0.60;;;13.00;99.90;;;;;;5037593;28;20049;-79
2021/12/28 12:30:27;;;;;;;3.65;1.70;;;13.00;99.90;;;;;;5042129;28;20026;-78
2021/12/28 12:33:05;;;;;;;1.50;0.77;;;12.80;99.90;;;;;;5042060;28;20067;-77
2021/12/28 12:35:40;;;;;;;1.73;0.57;;;12.80;99.90;;;;;;5042740;28;20041;-78
2021/12/28 12:38:14;;;;;;;1.85;0.50;;;12.90;99.90;;;;;;5042130;28;20037;-78
2021/12/28 12:41:01;;;;;;;3.22;1.20;;;12.90;99.90;;;;;;5040840;28;20041;-79
2021/12/28 12:43:39;;;;;;;2.20;0.70;;;13.10;99.90;;;;;;5042222;28;20258;-77
2021/12/28 12:46:22;;;;;;;3.53;1.38;;;13.20;99.90;;;;;;5040592;28;20392;-78
2021/12/28 12:48:54;;;;;;;3.55;1.15;;;13.10;99.90;;;;;;5026962;28;20056;-78
2021/12/28 12:51:20;;;;;;;3.47;1.40;;;13.00;99.90;;;;;;5022249;28;20092;-78
2021/12/28 12:54:06;;;;;;;3.63;1.00;;;13.00;99.90;;;;;;5024633;28;20313;-79
2021/12/28 12:56:33;;;;;;;2.15;0.60;;;13.00;99.90;;;;;;5041843;28;20329;-77
2021/12/28 12:59:14;;;;;;;2.65;0.60;;;13.00;99.90;;;;;;5041225;28;20053;-78
2021/12/28 13:01:39;;;;;;;2.45;1.38;;;12.90;99.90;;;;;;5026392;28;20158;-77
2021/12/28 13:04:27;;;;;;;1.77;0.85;;;12.90;99.90;;;;;;5025226;28;20018;-77
2021/12/28 13:07:03;;;;;;;2.28;0.60;;;12.90;99.90;;;;;;5028569;28;20030;-76
2021/12/28 13:09:31;;;;;;;1.38;0.50;;;12.90;99.90;;;;;;5048431;28;20048;-75